X51 weather

Miami Homestead General Aviation Airport
Homestead, Florida, United States

Public forecast

Using degrees Fahrenheit for public forecast. Weather courtesy of forecast.io.

Closest aviation weather report (METAR) to Miami Homestead General Aviation Airport

Closest report is Homestead ARB Airport, 9.3 nm (17.2 km) E. Retrieved 2020/08/07 10:56 UTC (1 hour ago):

KHST 071056Z AUTO 00000KT 10SM CLR 26/25 A3003 RMK AO2 SLP172 T02610245

Closest aviation forecast (TAF) to Miami Homestead General Aviation Airport

Forecast is more than 6 hours old.

Closest forecast is Homestead ARB Airport, 9.3 nm (17.2 km) E. Retrieved 2020-08-07 03:00 UTC (9 hours ago):

TAF KHST 070300Z 0703/0809 10006KT 9999 FEW025 FEW250 QNH3003INS BECMG 0717/0718 10008KT 9999 VCTS SCT025CB BKN040 BKN075 QNH3004INS TEMPO 0719/0801 VRB10G15KT 6000 -TSRA BKN020CB BECMG 0800/0801 09005KT 9999 NSW BKN025 QNH3007INS TX33/0719Z TN26/0710Z